createdAt,value
2022-07-30T00:01:46.480Z,2.50
2022-07-30T00:04:13.468Z,2.05
2022-07-30T00:06:40.546Z,2.75
2022-07-30T00:09:07.616Z,2.60
2022-07-30T00:11:35.115Z,2.90
2022-07-30T00:14:02.609Z,2.92
2022-07-30T00:16:29.647Z,2.42
2022-07-30T00:18:56.674Z,2.83
2022-07-30T00:21:35.535Z,2.05
2022-07-30T00:24:04.531Z,2.40
2022-07-30T00:26:31.662Z,2.45
2022-07-30T00:28:58.853Z,2.85
2022-07-30T00:31:26.012Z,2.60
2022-07-30T00:33:52.998Z,3.15
2022-07-30T00:36:20.167Z,2.95
2022-07-30T00:38:47.184Z,2.30
2022-07-30T00:41:15.450Z,2.60
2022-07-30T00:43:44.018Z,2.35
2022-07-30T00:46:11.092Z,3.10
2022-07-30T00:48:38.366Z,2.22
2022-07-30T00:51:05.511Z,2.33
2022-07-30T00:53:34.020Z,2.10
2022-07-30T00:56:01.602Z,2.30
2022-07-30T00:58:29.542Z,2.60
2022-07-30T01:00:56.532Z,2.33
2022-07-30T01:03:23.726Z,2.45
2022-07-30T01:05:51.498Z,2.53
2022-07-30T01:08:18.578Z,2.30
2022-07-30T01:10:45.588Z,2.63
2022-07-30T01:13:13.142Z,2.40
2022-07-30T01:15:40.365Z,2.20
2022-07-30T01:18:11.437Z,2.10
2022-07-30T01:20:59.004Z,2.10
2022-07-30T01:23:35.868Z,2.35
2022-07-30T01:26:07.599Z,2.38
2022-07-30T01:28:41.301Z,2.80
2022-07-30T01:31:09.591Z,2.58
2022-07-30T01:33:42.054Z,2.55
2022-07-30T01:36:14.323Z,2.25
2022-07-30T01:38:44.980Z,2.13
2022-07-30T01:41:14.914Z,2.38
2022-07-30T01:43:44.333Z,2.20
2022-07-30T01:46:13.872Z,2.60
2022-07-30T01:48:44.142Z,2.78
2022-07-30T01:51:13.762Z,2.80
2022-07-30T01:53:46.707Z,3.20
2022-07-30T01:56:16.598Z,3.08
2022-07-30T01:58:46.648Z,2.97
2022-07-30T02:01:19.867Z,2.80
2022-07-30T02:03:47.544Z,3.10
2022-07-30T02:06:21.067Z,3.00
2022-07-30T02:11:39.847Z,2.80
2022-07-30T02:14:26.930Z,3.08
2022-07-30T02:16:59.299Z,2.90
2022-07-30T02:19:34.576Z,3.05
2022-07-30T02:22:08.705Z,3.60
2022-07-30T02:24:38.751Z,3.75
2022-07-30T02:27:27.306Z,3.58
2022-07-30T02:29:57.630Z,3.83
2022-07-30T02:32:29.288Z,3.83
2022-07-30T02:35:01.731Z,3.60
2022-07-30T02:37:43.644Z,3.92
2022-07-30T02:40:15.652Z,3.70
2022-07-30T02:42:46.013Z,3.60
2022-07-30T02:45:20.253Z,3.58
2022-07-30T02:47:51.440Z,3.20
2022-07-30T02:50:20.071Z,3.30
2022-07-30T02:52:48.802Z,3.28
2022-07-30T02:55:16.524Z,3.53
2022-07-30T02:57:46.121Z,3.45
2022-07-30T03:00:14.223Z,3.65
2022-07-30T03:02:43.850Z,3.85
2022-07-30T03:05:13.783Z,4.00
2022-07-30T03:07:42.198Z,3.55
2022-07-30T03:10:11.280Z,3.53
2022-07-30T03:12:40.522Z,3.58
2022-07-30T03:15:08.176Z,3.80
2022-07-30T03:17:44.580Z,3.55
2022-07-30T03:20:15.537Z,3.90
2022-07-30T03:22:47.107Z,3.67
2022-07-30T03:25:18.174Z,3.95
2022-07-30T03:27:46.754Z,3.80
2022-07-30T03:30:14.134Z,3.90
2022-07-30T03:32:42.994Z,4.13
2022-07-30T03:35:16.728Z,4.10
2022-07-30T03:37:46.993Z,3.75
2022-07-30T03:40:15.306Z,3.60
2022-07-30T03:42:43.258Z,3.35
2022-07-30T03:45:13.737Z,3.05
2022-07-30T03:47:42.385Z,3.47
2022-07-30T03:50:12.360Z,3.63
2022-07-30T03:52:41.328Z,3.80
2022-07-30T03:55:12.618Z,3.60
2022-07-30T03:57:49.018Z,2.97
2022-07-30T04:00:19.982Z,3.47
2022-07-30T04:02:51.419Z,3.58
2022-07-30T04:05:41.186Z,3.38
2022-07-30T04:08:10.950Z,4.00
2022-07-30T04:10:39.086Z,4.00
2022-07-30T04:13:09.396Z,3.38
2022-07-30T04:16:05.905Z,3.45
2022-07-30T04:18:51.567Z,3.90
2022-07-30T04:21:20.657Z,4.40
2022-07-30T04:24:02.147Z,4.03
2022-07-30T04:26:35.132Z,4.07
2022-07-30T04:29:06.333Z,3.75
2022-07-30T04:31:37.532Z,4.53
2022-07-30T04:34:28.068Z,4.32
2022-07-30T04:36:55.222Z,4.25
2022-07-30T04:39:22.163Z,4.43
2022-07-30T04:41:50.186Z,4.45
2022-07-30T04:44:26.961Z,4.10
2022-07-30T04:47:23.131Z,4.57
2022-07-30T04:50:08.250Z,4.53
2022-07-30T04:52:37.099Z,4.75
2022-07-30T04:55:08.192Z,4.18
2022-07-30T04:57:38.890Z,3.95
2022-07-30T05:00:07.185Z,3.65
2022-07-30T05:02:40.189Z,4.80
2022-07-30T05:05:08.832Z,4.53
2022-07-30T05:07:37.946Z,4.88
2022-07-30T05:10:06.859Z,3.83
2022-07-30T05:12:34.803Z,4.40
2022-07-30T05:15:01.761Z,4.40
2022-07-30T05:17:28.715Z,4.63
2022-07-30T05:19:56.025Z,4.50
2022-07-30T05:22:23.004Z,4.15
2022-07-30T05:24:50.022Z,4.45
2022-07-30T05:27:17.082Z,4.85
2022-07-30T05:29:44.058Z,5.05
2022-07-30T05:32:14.658Z,4.10
2022-07-30T05:34:42.567Z,3.50
2022-07-30T05:37:09.876Z,4.20
2022-07-30T05:40:02.972Z,5.25
2022-07-30T05:42:53.401Z,4.68
2022-07-30T05:45:20.427Z,4.72
2022-07-30T05:47:48.254Z,5.50
2022-07-30T05:50:15.346Z,5.53
2022-07-30T05:52:42.314Z,4.93
2022-07-30T05:55:29.554Z,5.07
2022-07-30T05:58:10.093Z,5.07
2022-07-30T06:00:37.141Z,6.53
2022-07-30T06:03:04.164Z,5.55
2022-07-30T06:05:49.979Z,6.10
2022-07-30T06:08:16.944Z,6.95
2022-07-30T06:10:43.941Z,6.97
2022-07-30T06:13:11.886Z,6.85
2022-07-30T06:15:38.938Z,7.78
2022-07-30T06:18:05.927Z,6.88
2022-07-30T06:20:43.042Z,6.30
2022-07-30T06:23:36.367Z,6.53
2022-07-30T06:26:14.015Z,6.97
2022-07-30T06:28:41.361Z,6.95
2022-07-30T06:31:17.045Z,6.43
2022-07-30T06:33:44.227Z,7.30
2022-07-30T06:36:14.221Z,7.90
2022-07-30T06:39:01.759Z,8.48
2022-07-30T06:41:58.233Z,6.32
2022-07-30T06:44:30.015Z,7.50
2022-07-30T06:47:26.283Z,7.57
2022-07-30T06:49:54.037Z,7.82
2022-07-30T06:52:21.480Z,8.85
2022-07-30T06:54:51.635Z,8.02
2022-07-30T06:57:40.508Z,7.85
2022-07-30T07:00:25.354Z,8.20
2022-07-30T07:02:52.378Z,7.75
2022-07-30T07:05:29.167Z,7.18
2022-07-30T07:07:59.523Z,8.40
2022-07-30T07:10:31.091Z,10.23
2022-07-30T07:13:13.699Z,8.52
2022-07-30T07:15:41.035Z,7.50
2022-07-30T07:18:13.096Z,7.72
2022-07-30T07:20:47.095Z,7.07
2022-07-30T07:23:14.289Z,6.10
2022-07-30T07:25:42.323Z,6.50
2022-07-30T07:28:11.242Z,6.07
2022-07-30T07:30:42.176Z,5.78
2022-07-30T07:33:10.285Z,5.15
2022-07-30T07:35:48.404Z,5.35
2022-07-30T07:38:23.166Z,5.15
2022-07-30T07:40:51.382Z,5.35
2022-07-30T07:43:18.553Z,4.65
2022-07-30T07:45:46.176Z,5.30
2022-07-30T07:48:13.502Z,4.53
2022-07-30T07:50:59.931Z,4.63
2022-07-30T07:53:29.234Z,4.80
2022-07-30T07:55:57.266Z,4.43
2022-07-30T07:58:26.204Z,4.10
2022-07-30T08:00:57.194Z,3.85
2022-07-30T08:03:38.680Z,2.95
2022-07-30T08:06:23.392Z,3.45
2022-07-30T08:09:09.266Z,3.08
2022-07-30T08:12:08.242Z,3.50
2022-07-30T08:14:50.185Z,3.20
2022-07-30T08:17:43.657Z,2.97
2022-07-30T08:20:16.783Z,3.00
2022-07-30T08:22:44.150Z,2.20
2022-07-30T08:25:11.498Z,2.00
2022-07-30T08:27:49.729Z,2.40
2022-07-30T08:30:16.934Z,1.90
2022-07-30T08:32:44.011Z,2.25
2022-07-30T08:35:11.043Z,2.20
2022-07-30T08:37:41.015Z,2.17
2022-07-30T08:40:09.051Z,1.35
2022-07-30T08:42:43.256Z,1.58
2022-07-30T08:45:13.669Z,2.00
2022-07-30T08:47:42.599Z,1.90
2022-07-30T08:50:10.056Z,2.08
2022-07-30T08:52:49.266Z,1.80
2022-07-30T08:55:16.554Z,1.80
2022-07-30T08:57:44.815Z,1.75
2022-07-30T09:00:14.214Z,1.63
2022-07-30T09:02:42.071Z,2.03
2022-07-30T09:05:10.729Z,1.60
2022-07-30T09:07:38.878Z,1.60
2022-07-30T09:10:10.629Z,1.42
2022-07-30T09:12:43.309Z,1.65
2022-07-30T09:15:11.941Z,1.40
2022-07-30T09:17:58.151Z,1.38
2022-07-30T09:20:33.027Z,1.40
2022-07-30T09:23:04.623Z,1.90
2022-07-30T09:25:50.786Z,1.58
2022-07-30T09:28:36.472Z,1.65
2022-07-30T09:31:12.565Z,1.85
2022-07-30T09:34:02.947Z,1.60
2022-07-30T09:36:49.010Z,1.50
2022-07-30T09:39:33.827Z,1.50
2022-07-30T09:42:22.270Z,1.60
2022-07-30T09:44:52.071Z,1.70
2022-07-30T09:47:36.234Z,1.33
2022-07-30T09:50:29.403Z,1.63
2022-07-30T09:53:07.799Z,1.13
2022-07-30T09:55:41.269Z,1.50
2022-07-30T09:58:13.065Z,1.50
2022-07-30T10:00:59.664Z,1.30
2022-07-30T10:03:46.630Z,1.00
2022-07-30T10:06:38.018Z,1.70
2022-07-30T10:12:02.692Z,1.35
2022-07-30T10:14:34.331Z,1.40
2022-07-30T10:17:09.807Z,1.10
2022-07-30T10:19:40.018Z,1.33
2022-07-30T10:22:28.150Z,1.15
2022-07-30T10:25:20.713Z,1.50
2022-07-30T10:28:00.239Z,1.40
2022-07-30T10:30:32.455Z,1.25
2022-07-30T10:33:01.664Z,1.25
2022-07-30T10:35:34.485Z,1.20
2022-07-30T10:38:13.927Z,1.35
2022-07-30T10:41:01.672Z,1.30
2022-07-30T10:43:34.769Z,1.48
2022-07-30T10:46:34.674Z,1.50
2022-07-30T10:49:19.055Z,1.35
2022-07-30T10:51:56.673Z,1.33
2022-07-30T10:54:39.212Z,1.40
2022-07-30T10:57:31.912Z,1.40
2022-07-30T10:59:59.863Z,1.48
2022-07-30T11:02:29.197Z,1.20
2022-07-30T11:05:27.218Z,1.40
2022-07-30T11:08:35.803Z,1.30
2022-07-30T11:11:16.179Z,1.05
2022-07-30T11:16:33.648Z,1.10
2022-07-30T11:19:50.404Z,1.27
2022-07-30T11:22:29.710Z,1.08
2022-07-30T11:24:57.277Z,1.52
2022-07-30T11:27:48.566Z,1.23
2022-07-30T11:30:23.377Z,1.33
2022-07-30T11:33:15.193Z,1.17
2022-07-30T11:35:43.011Z,1.42
2022-07-30T11:38:13.031Z,1.20
2022-07-30T11:41:02.973Z,1.40
2022-07-30T11:43:35.611Z,1.25
2022-07-30T11:46:29.210Z,1.10
2022-07-30T11:49:08.539Z,1.10
2022-07-30T11:51:43.725Z,1.52
2022-07-30T11:54:11.743Z,1.17
2022-07-30T11:56:53.674Z,1.00
2022-07-30T11:59:20.820Z,1.25
2022-07-30T12:01:57.002Z,1.20
2022-07-30T12:04:24.629Z,1.48
2022-07-30T12:06:51.784Z,1.38
2022-07-30T12:09:23.759Z,1.05
2022-07-30T12:11:55.498Z,1.70
2022-07-30T12:14:22.562Z,1.10
2022-07-30T12:16:51.596Z,1.23
2022-07-30T12:19:18.661Z,1.20
2022-07-30T12:21:48.335Z,1.20
2022-07-30T12:24:25.119Z,1.00
2022-07-30T12:26:52.171Z,1.10
2022-07-30T12:29:19.287Z,1.00
2022-07-30T12:31:46.645Z,1.25
2022-07-30T12:34:23.707Z,1.40
2022-07-30T12:36:50.803Z,1.52
2022-07-30T12:39:23.864Z,1.38
2022-07-30T12:41:53.293Z,1.20
2022-07-30T12:44:42.296Z,1.55
2022-07-30T12:47:24.174Z,1.23
2022-07-30T12:49:53.264Z,1.23
2022-07-30T12:52:51.402Z,1.33
2022-07-30T12:55:19.694Z,1.10
2022-07-30T12:58:08.665Z,1.88
2022-07-30T13:00:45.073Z,1.30
2022-07-30T13:03:25.176Z,1.80
2022-07-30T13:05:55.678Z,1.20
2022-07-30T13:08:50.279Z,1.20
2022-07-30T13:11:19.571Z,1.08
2022-07-30T13:13:47.334Z,1.42
2022-07-30T13:16:14.717Z,1.30
2022-07-30T13:18:41.705Z,1.33
2022-07-30T13:21:09.947Z,1.23
2022-07-30T13:23:38.981Z,1.00
2022-07-30T13:26:07.455Z,1.10
2022-07-30T13:28:35.324Z,1.30
2022-07-30T13:31:02.628Z,1.33
2022-07-30T13:33:29.674Z,1.13
2022-07-30T13:35:57.139Z,1.20
2022-07-30T13:38:24.225Z,1.00
2022-07-30T13:40:51.996Z,1.10
2022-07-30T13:43:19.461Z,1.20
2022-07-30T13:45:47.089Z,1.00
2022-07-30T13:48:14.449Z,0.90
2022-07-30T13:50:42.342Z,1.15
2022-07-30T13:53:10.218Z,0.90
2022-07-30T13:55:38.390Z,1.08
2022-07-30T13:58:06.991Z,1.17
2022-07-30T14:00:36.795Z,0.90
2022-07-30T14:03:06.529Z,1.13
2022-07-30T14:05:36.061Z,0.90
2022-07-30T14:08:10.944Z,1.50
2022-07-30T14:10:39.829Z,1.00
2022-07-30T14:13:07.823Z,1.00
2022-07-30T14:15:35.340Z,1.10
2022-07-30T14:18:03.193Z,1.00
2022-07-30T14:20:30.644Z,1.05
2022-07-30T14:22:57.859Z,0.98
2022-07-30T14:25:25.387Z,1.17
2022-07-30T14:27:52.458Z,1.08
2022-07-30T14:30:19.783Z,1.00
2022-07-30T14:32:46.832Z,1.50
2022-07-30T14:35:13.765Z,1.08
2022-07-30T14:37:40.957Z,1.17
2022-07-30T14:40:11.454Z,1.00
2022-07-30T14:42:40.085Z,1.10
2022-07-30T14:45:10.855Z,0.98
2022-07-30T14:47:39.445Z,1.00
2022-07-30T14:50:09.758Z,1.10
2022-07-30T14:52:38.788Z,1.42
2022-07-30T14:55:08.990Z,0.98
2022-07-30T14:57:36.575Z,1.60
2022-07-30T15:00:07.345Z,1.00
2022-07-30T15:02:35.317Z,1.00
2022-07-30T15:05:02.255Z,1.20
2022-07-30T15:07:30.267Z,0.90
2022-07-30T15:10:02.002Z,0.93
2022-07-30T15:12:29.082Z,1.10
2022-07-30T15:14:56.211Z,1.02
2022-07-30T15:17:23.192Z,1.13
2022-07-30T15:19:51.463Z,1.08
2022-07-30T15:22:19.865Z,0.90
2022-07-30T15:24:47.243Z,1.10
2022-07-30T15:27:14.341Z,0.85
2022-07-30T15:29:42.908Z,1.02
2022-07-30T15:32:10.154Z,1.00
2022-07-30T15:34:37.119Z,1.00
2022-07-30T15:37:05.537Z,1.10
2022-07-30T15:39:33.697Z,1.17
2022-07-30T15:42:02.494Z,1.20
2022-07-30T15:44:30.004Z,1.40
2022-07-30T15:46:57.282Z,1.30
2022-07-30T15:49:24.301Z,1.40
2022-07-30T15:51:52.010Z,1.20
2022-07-30T15:54:23.278Z,1.42
2022-07-30T15:56:51.496Z,1.10
2022-07-30T15:59:18.673Z,1.20
2022-07-30T16:01:45.766Z,1.20
2022-07-30T16:04:19.739Z,1.13
2022-07-30T16:06:48.588Z,1.20
2022-07-30T16:09:18.347Z,1.20
2022-07-30T16:11:45.351Z,1.05
2022-07-30T16:14:13.904Z,1.55
2022-07-30T16:16:40.891Z,1.30
2022-07-30T16:19:08.014Z,1.42
2022-07-30T16:21:35.985Z,1.83
2022-07-30T16:24:03.875Z,1.27
2022-07-30T16:26:31.186Z,1.08
2022-07-30T16:28:58.178Z,1.50
2022-07-30T16:31:25.137Z,1.10
2022-07-30T16:33:52.066Z,0.90
2022-07-30T16:36:19.076Z,1.13
2022-07-30T16:38:46.053Z,1.00
2022-07-30T16:41:13.741Z,1.17
2022-07-30T16:43:41.302Z,1.00
2022-07-30T16:46:08.432Z,1.20
2022-07-30T16:48:35.432Z,1.13
2022-07-30T16:51:02.503Z,1.20
2022-07-30T16:53:29.719Z,1.08
2022-07-30T16:55:57.216Z,1.30
2022-07-30T16:58:28.357Z,1.20
2022-07-30T17:00:58.256Z,1.10
2022-07-30T17:03:25.726Z,1.00
2022-07-30T17:05:53.782Z,1.17
2022-07-30T17:08:24.693Z,1.33
2022-07-30T17:10:53.724Z,1.20
2022-07-30T17:13:21.141Z,0.90
2022-07-30T17:15:48.821Z,0.93
2022-07-30T17:18:16.466Z,1.20
2022-07-30T17:20:44.099Z,1.08
2022-07-30T17:23:11.246Z,1.00
2022-07-30T17:25:38.310Z,1.30
2022-07-30T17:28:05.580Z,1.30
2022-07-30T17:30:32.606Z,1.20
2022-07-30T17:32:59.576Z,1.13
2022-07-30T17:35:26.924Z,1.52
2022-07-30T17:37:54.053Z,1.20
2022-07-30T17:40:30.428Z,1.30
2022-07-30T17:43:07.547Z,1.00
2022-07-30T17:45:35.911Z,1.17
2022-07-30T17:48:04.021Z,1.17
2022-07-30T17:50:32.438Z,0.90
2022-07-30T17:53:00.211Z,0.95
2022-07-30T17:55:31.384Z,1.00
2022-07-30T17:57:58.324Z,1.08
2022-07-30T18:00:25.420Z,1.10
2022-07-30T18:02:52.494Z,1.20
2022-07-30T18:05:20.032Z,1.20
2022-07-30T18:07:47.018Z,1.50
2022-07-30T18:10:14.097Z,1.20
2022-07-30T18:12:48.951Z,1.20
2022-07-30T18:15:17.948Z,1.45
2022-07-30T18:17:45.224Z,1.23
2022-07-30T18:20:12.616Z,1.15
2022-07-30T18:22:40.544Z,1.33
2022-07-30T18:25:08.101Z,1.15
2022-07-30T18:27:45.143Z,1.10
2022-07-30T18:30:12.341Z,1.20
2022-07-30T18:32:39.315Z,1.50
2022-07-30T18:35:08.789Z,1.38
2022-07-30T18:37:41.343Z,1.30
2022-07-30T18:40:10.460Z,1.13
2022-07-30T18:42:37.490Z,1.08
2022-07-30T18:45:05.064Z,1.15
2022-07-30T18:47:32.242Z,1.23
2022-07-30T18:49:59.315Z,1.20
2022-07-30T18:52:26.618Z,1.00
2022-07-30T18:54:53.709Z,1.10
2022-07-30T18:57:20.847Z,1.08
2022-07-30T18:59:47.857Z,1.10
2022-07-30T19:02:14.883Z,1.10
2022-07-30T19:04:42.032Z,1.10
2022-07-30T19:07:09.238Z,1.13
2022-07-30T19:09:36.271Z,0.90
2022-07-30T19:12:04.333Z,0.90
2022-07-30T19:14:31.642Z,1.52
2022-07-30T19:16:59.276Z,0.90
2022-07-30T19:19:27.063Z,0.88
2022-07-30T19:21:54.486Z,1.35
2022-07-30T19:24:21.856Z,1.00
2022-07-30T19:26:49.193Z,0.82
2022-07-30T19:29:16.221Z,0.90
2022-07-30T19:31:43.157Z,0.90
2022-07-30T19:34:11.135Z,0.73
2022-07-30T19:36:39.671Z,0.98
2022-07-30T19:39:08.250Z,1.00
2022-07-30T19:41:40.821Z,1.00
2022-07-30T19:44:09.444Z,0.80
2022-07-30T19:46:38.141Z,1.00
2022-07-30T19:49:06.632Z,1.13
2022-07-30T19:52:11.117Z,0.90
2022-07-30T19:54:21.028Z,1.10
2022-07-30T19:56:48.757Z,1.00
2022-07-30T19:59:18.263Z,1.25
2022-07-30T20:01:45.296Z,1.30
2022-07-30T20:04:18.797Z,1.00
2022-07-30T20:06:46.106Z,1.00
2022-07-30T20:09:14.629Z,1.10
2022-07-30T20:11:43.707Z,1.30
2022-07-30T20:14:10.696Z,1.20
2022-07-30T20:16:37.806Z,1.20
2022-07-30T20:19:05.292Z,1.20
2022-07-30T20:21:56.029Z,1.10
2022-07-30T20:24:21.033Z,1.08
2022-07-30T20:26:48.139Z,1.10
2022-07-30T20:29:19.251Z,1.20
2022-07-30T20:31:46.924Z,1.10
2022-07-30T20:34:23.331Z,1.10
2022-07-30T20:39:19.794Z,1.00
2022-07-30T20:41:47.056Z,1.00
2022-07-30T20:44:23.686Z,1.00
2022-07-30T20:46:52.782Z,1.08
2022-07-30T20:49:23.789Z,0.80
2022-07-30T20:51:55.923Z,1.17
2022-07-30T20:54:23.030Z,1.05
2022-07-30T20:56:51.301Z,0.90
2022-07-30T20:59:19.174Z,1.10
2022-07-30T21:01:50.993Z,1.13
2022-07-30T21:04:25.547Z,1.10
2022-07-30T21:06:53.326Z,1.25
2022-07-30T21:09:20.550Z,1.10
2022-07-30T21:11:50.400Z,1.08
2022-07-30T21:14:20.135Z,1.00
2022-07-30T21:16:47.528Z,1.20
2022-07-30T21:19:17.041Z,1.00
2022-07-30T21:21:48.633Z,0.95
2022-07-30T21:24:18.839Z,1.00
2022-07-30T21:26:51.087Z,0.90
2022-07-30T21:29:19.000Z,0.95
2022-07-30T21:32:01.335Z,1.13
2022-07-30T21:34:40.049Z,1.10
2022-07-30T21:37:09.353Z,1.20
2022-07-30T21:39:39.934Z,1.05
2022-07-30T21:42:09.613Z,0.93
2022-07-30T21:44:38.205Z,1.00
2022-07-30T21:47:10.336Z,1.08
2022-07-30T21:49:39.351Z,1.00
2022-07-30T21:52:08.425Z,1.20
2022-07-30T21:54:48.049Z,1.40
2022-07-30T21:57:26.150Z,1.15
2022-07-30T22:00:21.877Z,1.20
2022-07-30T22:02:52.942Z,1.08
2022-07-30T22:05:21.839Z,1.10
2022-07-30T22:07:50.684Z,1.02
2022-07-30T22:10:21.521Z,1.15
2022-07-30T22:12:49.039Z,0.93
2022-07-30T22:15:18.055Z,1.08
2022-07-30T22:17:58.829Z,1.40
2022-07-30T22:20:31.655Z,1.20
2022-07-30T22:23:00.702Z,1.17
2022-07-30T22:25:43.800Z,1.05
2022-07-30T22:28:13.540Z,1.10
2022-07-30T22:30:41.204Z,1.02
2022-07-30T22:33:14.990Z,1.05
2022-07-30T22:38:19.465Z,1.08
2022-07-30T22:40:46.734Z,0.80
2022-07-30T22:43:15.795Z,1.20
2022-07-30T22:45:49.017Z,1.10
2022-07-30T22:48:25.336Z,0.98
2022-07-30T22:50:55.453Z,1.00
2022-07-30T22:54:09.924Z,1.10
2022-07-30T22:56:14.098Z,1.17
2022-07-30T22:58:43.285Z,1.20
2022-07-30T23:01:10.947Z,1.17
2022-07-30T23:03:38.279Z,0.98
2022-07-30T23:06:05.197Z,1.05
2022-07-30T23:08:33.555Z,1.08
2022-07-30T23:11:01.043Z,1.00
2022-07-30T23:13:29.025Z,1.02
2022-07-30T23:15:56.030Z,1.30
2022-07-30T23:18:23.101Z,1.13
2022-07-30T23:20:50.605Z,1.13
2022-07-30T23:23:17.625Z,0.90
2022-07-30T23:25:44.636Z,0.90
2022-07-30T23:28:11.665Z,1.30
2022-07-30T23:30:38.683Z,1.10
2022-07-30T23:33:05.738Z,1.10
2022-07-30T23:35:33.576Z,1.10
2022-07-30T23:38:00.639Z,1.30
2022-07-30T23:40:28.420Z,1.00
2022-07-30T23:42:55.665Z,1.30
2022-07-30T23:45:22.646Z,1.40
2022-07-30T23:48:01.515Z,1.10
2022-07-30T23:50:30.332Z,1.40
2022-07-30T23:52:57.254Z,1.33
2022-07-30T23:55:24.354Z,1.20
2022-07-30T23:57:51.398Z,1.05
